Time;durP1;ratioP1;P1;durP2;ratioP2;P2;SDS_P1;SDS_P2;PMS_P1;PMS_P2;Temp;Humidity;BMP_temperature;BMP_pressure;BME280_temperature;BME280_humidity;BME280_pressure;Samples;Min_cycle;Max_cycle;Signal;HPM_P1;HPM_P2
2022/01/03 00:01:18;;;;;;;10.27;2.63;;;13.30;78.00;;;;;;5025772;28;20575;-49
2022/01/03 00:03:45;;;;;;;9.10;2.25;;;13.30;77.80;;;;;;5026436;28;20038;-50
2022/01/03 00:06:12;;;;;;;13.40;2.42;;;13.20;77.60;;;;;;5011721;28;20100;-48
2022/01/03 00:08:42;;;;;;;9.30;2.38;;;13.30;77.90;;;;;;5016601;28;20112;-46
2022/01/03 00:11:12;;;;;;;12.50;3.50;;;13.30;78.00;;;;;;5026000;28;20046;-49
2022/01/03 00:13:46;;;;;;;10.18;2.63;;;13.30;77.80;;;;;;5010472;28;20072;-50
2022/01/03 00:16:13;;;;;;;10.07;2.58;;;13.30;77.80;;;;;;5011384;28;20624;-48
2022/01/03 00:18:41;;;;;;;13.85;2.38;;;13.30;77.70;;;;;;5011115;28;20050;-50
2022/01/03 00:21:12;;;;;;;12.57;2.63;;;13.30;77.60;;;;;;5011805;28;20041;-50
2022/01/03 00:23:50;;;;;;;12.50;3.25;;;13.30;77.60;;;;;;4996256;28;20042;-48
2022/01/03 00:26:24;;;;;;;11.18;2.88;;;13.30;77.70;;;;;;5021164;28;20045;-48
2022/01/03 00:28:57;;;;;;;;;;;13.30;77.60;;;;;;5019524;28;20557;-51
2022/01/03 00:31:32;;;;;;;;;;;13.40;78.00;;;;;;5027323;28;19921;-48
2022/01/03 00:34:01;;;;;;;10.75;2.72;;;13.40;78.10;;;;;;5012939;28;20396;-49
2022/01/03 00:36:29;;;;;;;13.20;2.72;;;13.30;77.10;;;;;;5023361;28;20045;-49
2022/01/03 00:38:56;;;;;;;11.57;2.10;;;13.30;77.10;;;;;;5022203;28;20552;-50
2022/01/03 00:41:23;;;;;;;11.73;2.50;;;13.30;77.00;;;;;;5030496;28;20458;-50
2022/01/03 00:43:52;;;;;;;9.30;2.35;;;13.30;77.00;;;;;;5007576;28;20044;-48
2022/01/03 00:46:19;;;;;;;8.77;2.60;;;13.30;77.00;;;;;;5008317;28;20107;-50
2022/01/03 00:48:46;;;;;;;13.50;2.22;;;13.30;77.00;;;;;;5010268;28;20121;-50
2022/01/03 00:51:17;;;;;;;8.13;2.55;;;13.30;77.10;;;;;;4992747;28;20046;-48
2022/01/03 00:53:46;;;;;;;12.15;2.80;;;13.20;76.90;;;;;;5011673;28;20045;-51
2022/01/03 00:56:26;;;;;;;9.90;2.40;;;13.30;77.10;;;;;;5009474;28;20502;-50
2022/01/03 00:59:07;;;;;;;10.30;3.10;;;13.30;76.80;;;;;;5013297;28;20107;-50
2022/01/03 01:01:45;;;;;;;11.75;2.72;;;13.30;76.90;;;;;;5029988;28;20523;-50
2022/01/03 01:04:14;;;;;;;10.75;2.75;;;13.30;76.70;;;;;;5018750;28;20064;-50
2022/01/03 01:06:49;;;;;;;6.68;2.08;;;13.30;76.80;;;;;;5007796;28;20069;-48
2022/01/03 01:09:17;;;;;;;8.88;2.75;;;13.30;76.70;;;;;;4992909;28;20133;-50
2022/01/03 01:11:44;;;;;;;8.77;2.55;;;13.30;76.50;;;;;;5012554;28;20092;-50
2022/01/03 01:14:15;;;;;;;12.80;3.40;;;13.30;76.50;;;;;;4993561;28;20042;-47
2022/01/03 01:16:43;;;;;;;11.98;2.75;;;13.30;76.50;;;;;;5003441;28;20280;-50
2022/01/03 01:19:11;;;;;;;10.55;2.70;;;13.40;76.30;;;;;;5012304;28;20053;-47
2022/01/03 01:21:40;;;;;;;11.55;3.03;;;13.40;76.40;;;;;;4987122;28;20058;-47
2022/01/03 01:24:07;;;;;;;10.48;2.55;;;13.40;76.30;;;;;;5001137;28;20045;-50
2022/01/03 01:29:20;;;;;;;7.90;2.55;;;13.40;75.90;;;;;;5012271;28;20572;-47
2022/01/03 01:31:52;;;;;;;6.22;2.00;;;13.40;75.60;;;;;;5011810;28;20060;-51
2022/01/03 01:34:27;;;;;;;13.32;2.83;;;13.40;75.60;;;;;;4995785;28;20132;-49
2022/01/03 01:36:59;;;;;;;10.70;2.78;;;13.40;75.30;;;;;;5008567;28;20042;-48
2022/01/03 01:39:29;;;;;;;10.05;2.67;;;13.30;75.20;;;;;;4992460;28;20075;-50
2022/01/03 01:41:59;;;;;;;9.68;3.25;;;13.40;75.10;;;;;;5005602;28;20072;-46
2022/01/03 01:44:32;;;;;;;10.10;2.47;;;13.30;74.80;;;;;;5020005;28;20686;-48
2022/01/03 01:47:02;;;;;;;;;;;13.30;74.80;;;;;;5028060;28;20126;-47
2022/01/03 01:49:37;;;;;;;10.90;2.30;;;13.30;75.50;;;;;;4998260;28;19925;-50
2022/01/03 01:52:15;;;;;;;6.53;2.20;;;13.30;74.50;;;;;;5001004;28;20046;-49
2022/01/03 01:54:57;;;;;;;13.65;2.63;;;13.20;74.40;;;;;;5010400;28;20523;-50
2022/01/03 01:58:07;;;;;;;9.10;2.15;;;13.20;74.70;;;;;;5025142;28;20046;-48
2022/01/03 02:00:45;;;;;;;8.77;3.00;;;13.20;74.80;;;;;;4990763;28;20046;-47
2022/01/03 02:03:50;;;;;;;8.55;2.33;;;13.20;74.60;;;;;;5003267;28;20485;-47
2022/01/03 02:06:17;;;;;;;11.35;2.63;;;13.20;74.80;;;;;;5001562;28;20042;-49
2022/01/03 02:09:08;;;;;;;13.23;2.50;;;13.20;74.70;;;;;;4989073;28;20042;-50
2022/01/03 02:11:54;;;;;;;9.68;2.30;;;13.20;74.50;;;;;;4998374;28;20050;-50
2022/01/03 02:14:26;;;;;;;8.88;2.10;;;13.30;74.40;;;;;;4995684;28;20054;-50
2022/01/03 02:16:56;;;;;;;8.60;2.35;;;13.30;74.50;;;;;;5012150;28;20045;-47
2022/01/03 02:19:27;;;;;;;6.30;2.15;;;13.30;74.40;;;;;;5016516;28;20045;-50
2022/01/03 02:21:54;;;;;;;8.70;1.92;;;13.30;74.40;;;;;;5000131;28;20046;-48
2022/01/03 02:24:28;;;;;;;12.05;2.63;;;13.30;74.30;;;;;;4996129;28;20088;-51
2022/01/03 02:26:56;;;;;;;8.05;2.25;;;13.40;74.50;;;;;;4992307;28;20042;-50
2022/01/03 02:29:26;;;;;;;7.53;2.10;;;13.30;73.70;;;;;;5007701;28;20046;-50
2022/01/03 02:31:54;;;;;;;14.63;2.55;;;13.30;73.50;;;;;;4994171;28;20057;-50
2022/01/03 02:34:23;;;;;;;8.07;2.65;;;13.40;73.40;;;;;;5016879;28;20049;-50
2022/01/03 02:36:53;;;;;;;11.55;2.63;;;13.30;73.30;;;;;;5021443;28;20049;-51
2022/01/03 02:39:19;;;;;;;8.35;2.10;;;13.30;73.40;;;;;;5017771;28;20042;-51
2022/01/03 02:41:46;;;;;;;7.68;2.10;;;13.30;73.20;;;;;;5003400;28;20049;-50
2022/01/03 02:44:18;;;;;;;10.50;2.15;;;13.30;73.20;;;;;;5010758;28;20660;-50
2022/01/03 02:46:45;;;;;;;7.72;1.98;;;13.30;73.30;;;;;;5019187;28;20042;-51
2022/01/03 02:49:12;;;;;;;4.72;2.25;;;13.30;73.30;;;;;;5004268;28;20076;-47
2022/01/03 02:51:42;;;;;;;11.55;2.42;;;13.30;73.30;;;;;;5030075;28;20045;-47
2022/01/03 02:54:09;;;;;;;10.38;2.17;;;13.30;73.30;;;;;;5013860;28;20052;-47
2022/01/03 02:56:36;;;;;;;10.23;1.90;;;13.40;73.20;;;;;;5024490;28;20053;-46
2022/01/03 02:59:14;;;;;;;8.40;2.20;;;13.30;73.10;;;;;;5007180;28;20856;-47
2022/01/03 03:01:45;;;;;;;7.60;2.85;;;13.40;72.80;;;;;;5031771;28;20133;-47
2022/01/03 03:04:14;;;;;;;12.20;2.42;;;13.30;72.60;;;;;;4996875;28;20050;-47
2022/01/03 03:06:41;;;;;;;11.70;2.38;;;13.30;72.40;;;;;;5010865;28;20520;-47
2022/01/03 03:09:08;;;;;;;14.27;2.80;;;13.30;72.40;;;;;;5020379;28;20049;-47
2022/01/03 03:11:36;;;;;;;4.78;2.20;;;13.30;72.50;;;;;;4989734;28;20569;-47
2022/01/03 03:14:04;;;;;;;10.93;2.65;;;13.20;72.60;;;;;;5000097;28;20052;-50
2022/01/03 03:16:31;;;;;;;7.22;2.38;;;13.20;72.50;;;;;;5008767;28;20055;-48
2022/01/03 03:18:58;;;;;;;10.38;3.00;;;13.20;72.60;;;;;;5022721;28;20048;-47
2022/01/03 03:21:30;;;;;;;7.30;2.20;;;13.20;72.70;;;;;;5014682;28;20135;-47
2022/01/03 03:23:58;;;;;;;12.23;2.63;;;13.20;72.70;;;;;;5022178;28;20048;-46
2022/01/03 03:26:25;;;;;;;6.88;2.25;;;13.20;72.70;;;;;;5019227;28;20513;-49
2022/01/03 03:28:52;;;;;;;13.13;3.10;;;13.20;72.90;;;;;;5029581;28;20526;-46
2022/01/03 03:31:19;;;;;;;8.05;1.83;;;13.20;73.00;;;;;;5030087;22;20075;-52
2022/01/03 03:33:46;;;;;;;8.60;2.45;;;13.20;72.90;;;;;;5032543;28;20412;-51
2022/01/03 03:36:13;;;;;;;8.85;2.50;;;13.20;72.90;;;;;;5023427;28;20080;-50
2022/01/03 03:38:41;;;;;;;8.43;1.70;;;13.20;72.90;;;;;;5032836;28;20067;-50
2022/01/03 03:41:12;;;;;;;7.80;1.90;;;13.20;72.80;;;;;;5034239;28;20057;-49
2022/01/03 03:43:44;;;;;;;4.40;2.15;;;13.20;72.80;;;;;;5019681;28;20415;-54
2022/01/03 03:46:11;;;;;;;7.38;2.63;;;13.20;72.80;;;;;;5039955;28;20048;-50
2022/01/03 03:48:39;;;;;;;8.52;2.35;;;13.20;72.80;;;;;;5031520;28;20135;-50
2022/01/03 03:51:08;;;;;;;8.48;2.53;;;13.20;72.40;;;;;;5026559;28;20034;-49
2022/01/03 03:53:35;;;;;;;14.95;3.40;;;13.20;72.50;;;;;;5017452;28;20500;-53
2022/01/03 03:56:02;;;;;;;10.88;2.08;;;13.20;72.50;;;;;;5025446;28;20041;-51
2022/01/03 03:58:31;;;;;;;8.82;3.03;;;13.20;72.50;;;;;;5029029;28;20512;-50
2022/01/03 04:00:58;;;;;;;7.20;2.30;;;13.20;72.50;;;;;;5018965;28;20053;-53
2022/01/03 04:03:38;;;;;;;11.13;2.40;;;13.20;72.40;;;;;;5012672;28;20038;-52
2022/01/03 04:06:05;;;;;;;11.48;2.28;;;13.20;72.30;;;;;;5017019;28;20045;-50
2022/01/03 04:08:32;;;;;;;9.10;1.73;;;13.10;72.30;;;;;;5027171;28;20535;-52
2022/01/03 04:10:59;;;;;;;9.32;2.33;;;13.10;72.40;;;;;;5028694;28;20052;-52
2022/01/03 04:13:28;;;;;;;9.05;1.88;;;13.10;72.40;;;;;;5031584;28;20075;-49
2022/01/03 04:15:56;;;;;;;8.57;2.35;;;13.10;72.50;;;;;;5024581;28;20107;-49
2022/01/03 04:18:23;;;;;;;8.68;2.47;;;13.10;72.30;;;;;;5033897;28;20041;-55
2022/01/03 04:20:50;;;;;;;9.68;2.22;;;13.10;72.40;;;;;;5015617;28;20057;-52
2022/01/03 04:23:16;;;;;;;9.13;2.47;;;13.10;72.40;;;;;;5011467;28;20635;-52
2022/01/03 04:25:44;;;;;;;8.73;3.17;;;13.10;72.20;;;;;;5043174;28;20163;-52
2022/01/03 04:28:11;;;;;;;10.20;2.28;;;13.20;72.10;;;;;;5024596;28;20067;-50
2022/01/03 04:30:37;;;;;;;8.77;2.95;;;13.10;72.00;;;;;;5018765;28;20054;-54
2022/01/03 04:33:04;;;;;;;8.35;2.38;;;13.20;71.80;;;;;;5041789;28;20061;-54
2022/01/03 04:35:31;;;;;;;8.43;2.08;;;13.20;71.80;;;;;;5050822;28;20056;-54
2022/01/03 04:37:58;;;;;;;8.50;2.17;;;13.20;71.80;;;;;;5032257;28;20041;-52
2022/01/03 04:40:27;;;;;;;6.95;2.10;;;13.20;71.50;;;;;;5021828;28;20041;-50
2022/01/03 04:42:54;;;;;;;7.57;2.33;;;13.20;71.30;;;;;;5049778;28;20047;-54
2022/01/03 04:45:21;;;;;;;9.88;2.63;;;13.20;71.20;;;;;;5016568;28;20048;-55
2022/01/03 04:47:48;;;;;;;9.70;2.67;;;13.20;71.20;;;;;;5037451;28;20045;-52
2022/01/03 04:50:15;;;;;;;11.10;1.98;;;13.20;71.10;;;;;;5041058;28;20037;-55
2022/01/03 04:52:42;;;;;;;5.15;2.45;;;13.20;70.80;;;;;;5024144;28;20041;-53
2022/01/03 04:55:09;;;;;;;6.68;1.95;;;13.20;70.80;;;;;;5031444;28;20048;-54
2022/01/03 04:57:37;;;;;;;9.23;2.05;;;13.20;70.80;;;;;;5014892;28;20045;-55
2022/01/03 05:00:08;;;;;;;8.75;1.92;;;13.30;70.90;;;;;;5023291;28;20041;-51
2022/01/03 05:02:37;;;;;;;8.63;3.38;;;13.20;70.60;;;;;;5029461;28;20489;-53
2022/01/03 05:05:06;;;;;;;8.77;2.63;;;13.20;70.60;;;;;;5022813;28;20877;-50
2022/01/03 05:07:33;;;;;;;11.25;2.85;;;13.30;70.50;;;;;;4999947;28;20506;-52
2022/01/03 05:10:00;;;;;;;6.90;1.88;;;13.30;70.50;;;;;;5042789;28;20048;-50
2022/01/03 05:12:26;;;;;;;9.27;2.13;;;13.30;70.50;;;;;;5015321;28;20042;-55
2022/01/03 05:14:53;;;;;;;9.75;2.17;;;13.30;70.60;;;;;;5014389;28;20094;-53
2022/01/03 05:17:20;;;;;;;11.57;3.15;;;13.30;70.50;;;;;;5024596;28;20053;-53
2022/01/03 05:19:47;;;;;;;8.10;2.35;;;13.30;70.40;;;;;;5023493;28;20130;-55
2022/01/03 05:22:14;;;;;;;8.55;1.85;;;13.30;70.40;;;;;;5025825;28;20049;-54
2022/01/03 05:24:42;;;;;;;12.20;2.85;;;13.30;70.40;;;;;;5012703;28;20038;-51
2022/01/03 05:27:09;;;;;;;6.60;1.88;;;13.30;70.30;;;;;;5012555;28;20041;-54
2022/01/03 05:29:36;;;;;;;5.88;2.17;;;13.30;70.20;;;;;;5014328;28;20745;-53
2022/01/03 05:32:04;;;;;;;8.15;1.88;;;13.30;70.20;;;;;;5009912;28;20072;-52
2022/01/03 05:34:31;;;;;;;10.18;2.40;;;13.30;70.20;;;;;;5025900;28;20049;-52
2022/01/03 05:36:58;;;;;;;10.13;2.28;;;13.30;70.30;;;;;;5028064;28;20416;-54
2022/01/03 05:39:25;;;;;;;7.32;1.95;;;13.30;70.20;;;;;;5010764;28;20412;-54
2022/01/03 05:41:52;;;;;;;9.13;2.72;;;13.30;70.30;;;;;;5022706;28;20045;-53
2022/01/03 05:44:19;;;;;;;10.73;2.80;;;13.30;70.30;;;;;;5014052;28;20463;-54
2022/01/03 05:46:46;;;;;;;11.15;2.95;;;13.30;70.20;;;;;;5039505;28;20413;-53
2022/01/03 05:49:13;;;;;;;9.70;2.63;;;13.30;70.20;;;;;;5016673;28;20052;-51
2022/01/03 05:51:40;;;;;;;7.53;1.90;;;13.30;70.30;;;;;;5012267;28;20123;-50
2022/01/03 05:54:08;;;;;;;14.43;3.28;;;13.30;70.30;;;;;;5011305;28;20504;-54
2022/01/03 05:56:35;;;;;;;9.23;2.00;;;13.30;70.20;;;;;;5014191;28;20052;-51
2022/01/03 05:59:07;;;;;;;14.10;2.30;;;13.30;70.30;;;;;;5010739;28;20151;-51
2022/01/03 06:01:37;;;;;;;13.35;2.88;;;13.30;70.30;;;;;;4991762;28;20689;-54
2022/01/03 06:04:20;;;;;;;10.25;1.90;;;13.30;70.30;;;;;;5010583;28;20045;-53
2022/01/03 06:07:09;;;;;;;6.20;1.83;;;13.30;70.20;;;;;;5025692;28;20057;-54
2022/01/03 06:09:43;;;;;;;8.93;2.30;;;13.40;70.00;;;;;;5009087;28;20038;-55
2022/01/03 06:12:12;;;;;;;12.80;2.40;;;13.30;70.10;;;;;;5011329;28;20041;-53
2022/01/03 06:14:47;;;;;;;9.65;2.35;;;13.30;70.10;;;;;;5014292;28;20107;-52
2022/01/03 06:17:16;;;;;;;13.95;2.30;;;13.40;70.10;;;;;;5011528;28;20057;-53
2022/01/03 06:19:50;;;;;;;11.43;2.72;;;13.30;70.00;;;;;;5009666;28;20417;-54
2022/01/03 06:22:18;;;;;;;10.68;2.08;;;13.40;70.00;;;;;;5016144;28;20053;-51
2022/01/03 06:24:51;;;;;;;12.02;2.85;;;13.30;69.80;;;;;;5019006;28;20048;-54
2022/01/03 06:27:18;;;;;;;11.57;2.38;;;13.30;69.90;;;;;;5027047;28;20048;-54
2022/01/03 06:29:45;;;;;;;8.85;2.22;;;13.30;69.90;;;;;;5052639;28;20048;-53
2022/01/03 06:32:12;;;;;;;13.57;3.08;;;13.30;69.90;;;;;;5016954;28;20477;-53
2022/01/03 06:34:39;;;;;;;9.10;2.60;;;13.30;69.80;;;;;;5041520;28;20099;-52
2022/01/03 06:37:06;;;;;;;9.23;2.40;;;13.30;69.70;;;;;;5031884;28;20045;-55
2022/01/03 06:39:42;;;;;;;11.90;2.75;;;13.30;69.70;;;;;;5012939;28;20079;-52
2022/01/03 06:42:10;;;;;;;8.10;2.05;;;13.30;69.70;;;;;;5026745;28;20139;-54
2022/01/03 06:44:37;;;;;;;9.68;2.25;;;13.30;69.90;;;;;;5024620;28;20045;-52
2022/01/03 06:47:04;;;;;;;10.07;2.40;;;13.30;69.90;;;;;;5022084;28;20045;-55
2022/01/03 06:49:31;;;;;;;11.02;2.20;;;13.30;69.90;;;;;;5045586;28;20115;-54
2022/01/03 06:51:58;;;;;;;8.48;2.10;;;13.30;69.90;;;;;;5007524;28;20061;-53
2022/01/03 06:54:25;;;;;;;9.68;2.67;;;13.30;70.00;;;;;;5011625;28;20052;-51
2022/01/03 06:56:56;;;;;;;11.77;2.85;;;13.30;70.00;;;;;;5023278;28;20048;-55
2022/01/03 06:59:29;;;;;;;11.23;2.80;;;13.30;69.90;;;;;;5015047;28;20524;-58
2022/01/03 07:01:56;;;;;;;9.95;2.60;;;13.30;69.80;;;;;;5027844;28;20048;-52
2022/01/03 07:04:23;;;;;;;7.65;2.50;;;13.30;69.70;;;;;;5018229;28;20519;-50
2022/01/03 07:06:50;;;;;;;8.88;1.98;;;13.30;69.60;;;;;;5031553;28;20037;-53
2022/01/03 07:09:16;;;;;;;7.18;2.83;;;13.30;69.70;;;;;;5034571;28;20792;-52
2022/01/03 07:11:43;;;;;;;8.63;2.30;;;13.30;69.70;;;;;;5025369;28;20042;-56
2022/01/03 07:19:43;;;;;;;11.15;3.25;;;13.20;69.90;;;;;;5036223;28;20088;-57
2022/01/03 07:22:10;;;;;;;6.85;2.45;;;13.20;69.90;;;;;;5035934;28;20037;-51
2022/01/03 07:24:39;;;;;;;9.65;2.83;;;13.10;70.10;;;;;;5025302;28;20501;-54
2022/01/03 07:27:08;;;;;;;7.97;2.90;;;13.10;70.30;;;;;;5033011;28;20172;-54
2022/01/03 07:29:36;;;;;;;8.68;2.55;;;13.10;70.30;;;;;;5029530;28;20091;-56
2022/01/03 07:32:03;;;;;;;9.90;2.97;;;13.10;70.50;;;;;;5009887;28;20041;-50
2022/01/03 07:34:30;;;;;;;6.80;2.50;;;13.10;70.70;;;;;;5037467;28;20528;-54
2022/01/03 07:36:58;;;;;;;8.90;2.53;;;13.10;70.80;;;;;;5027455;28;20055;-54
2022/01/03 07:39:25;;;;;;;11.98;3.15;;;13.10;70.80;;;;;;5022747;28;20478;-53
2022/01/03 07:41:51;;;;;;;14.95;3.00;;;13.10;70.80;;;;;;5037759;28;20041;-52
2022/01/03 07:44:18;;;;;;;11.35;2.95;;;13.10;70.80;;;;;;5044173;28;20052;-54
2022/01/03 07:46:45;;;;;;;6.70;2.28;;;13.10;70.80;;;;;;5046031;28;20053;-53
2022/01/03 07:49:12;;;;;;;6.78;2.80;;;13.10;70.90;;;;;;5034577;28;20041;-54
2022/01/03 07:51:38;;;;;;;10.55;3.15;;;13.10;70.70;;;;;;5042241;28;20091;-57
2022/01/03 07:54:05;;;;;;;10.70;4.15;;;13.10;70.80;;;;;;5051717;28;20487;-50
2022/01/03 07:56:33;;;;;;;14.00;3.05;;;13.10;70.90;;;;;;5036047;28;20044;-55
2022/01/03 07:59:00;;;;;;;10.13;3.28;;;13.10;70.90;;;;;;5018520;28;20053;-57
2022/01/03 08:01:27;;;;;;;11.70;2.42;;;13.10;71.00;;;;;;5024727;28;20120;-54
2022/01/03 08:03:54;;;;;;;12.23;2.50;;;13.20;71.10;;;;;;5029110;28;20635;-52
2022/01/03 08:06:41;;;;;;;11.60;2.75;;;13.10;71.00;;;;;;5029850;28;20053;-55
2022/01/03 08:09:08;;;;;;;10.85;2.67;;;13.20;71.00;;;;;;5032212;28;20045;-54
2022/01/03 08:11:35;;;;;;;10.73;2.75;;;13.20;71.00;;;;;;5029728;28;20799;-55
2022/01/03 08:14:01;;;;;;;10.98;2.60;;;13.20;71.00;;;;;;5030044;28;20575;-54
2022/01/03 08:16:28;;;;;;;12.18;3.25;;;13.30;71.10;;;;;;5041207;28;20037;-56
2022/01/03 08:18:56;;;;;;;11.13;2.42;;;13.30;71.10;;;;;;5023163;28;20566;-55
2022/01/03 08:21:23;;;;;;;7.97;2.17;;;13.30;71.10;;;;;;5015241;28;20046;-55
2022/01/03 08:23:51;;;;;;;9.57;2.90;;;13.30;71.10;;;;;;5029525;28;20087;-56
2022/01/03 08:26:18;;;;;;;9.57;2.30;;;13.40;71.30;;;;;;5041302;28;20044;-54
2022/01/03 08:28:45;;;;;;;10.20;3.83;;;13.30;71.80;;;;;;5034659;28;20041;-55
2022/01/03 08:31:11;;;;;;;11.13;2.88;;;13.40;70.90;;;;;;5028015;28;20037;-52
2022/01/03 08:33:39;;;;;;;12.20;2.78;;;13.40;70.90;;;;;;5015557;28;20072;-50
2022/01/03 08:36:05;;;;;;;8.52;2.88;;;13.40;70.90;;;;;;5013228;28;20048;-54
2022/01/03 08:38:32;;;;;;;9.00;2.42;;;13.40;70.90;;;;;;5030623;28;20042;-53
2022/01/03 08:40:59;;;;;;;9.93;2.72;;;13.40;70.70;;;;;;5029830;28;20099;-56
2022/01/03 08:43:27;;;;;;;12.10;3.30;;;13.40;70.60;;;;;;5017784;28;20037;-54
2022/01/03 08:45:54;;;;;;;12.15;2.88;;;13.50;70.50;;;;;;5016933;28;20041;-57
2022/01/03 08:48:21;;;;;;;6.82;2.72;;;13.50;70.30;;;;;;5013043;28;20095;-53
2022/01/03 08:50:48;;;;;;;6.38;2.42;;;13.40;70.20;;;;;;5034244;28;20083;-54
2022/01/03 08:53:14;;;;;;;9.82;3.30;;;13.50;70.20;;;;;;5028782;28;20406;-54
2022/01/03 08:55:41;;;;;;;7.97;3.42;;;13.40;70.00;;;;;;5038940;28;20076;-53
2022/01/03 08:58:09;;;;;;;9.55;3.38;;;13.50;69.90;;;;;;5050282;28;20466;-52
2022/01/03 09:00:36;;;;;;;9.68;2.72;;;13.40;69.70;;;;;;5037642;28;20050;-55
2022/01/03 09:03:02;;;;;;;9.18;3.03;;;13.40;69.60;;;;;;5030497;28;20084;-56
2022/01/03 09:05:29;;;;;;;10.55;2.85;;;13.50;69.60;;;;;;5029706;28;20046;-54
2022/01/03 09:07:56;;;;;;;7.72;2.53;;;13.40;69.50;;;;;;5030748;28;20091;-55
2022/01/03 09:10:23;;;;;;;6.00;3.33;;;13.50;69.50;;;;;;5006416;28;20054;-56
2022/01/03 09:12:50;;;;;;;9.27;2.90;;;13.50;69.40;;;;;;5042537;28;20563;-51
2022/01/03 09:15:17;;;;;;;10.13;3.47;;;13.50;69.40;;;;;;5035160;28;20057;-51
2022/01/03 09:17:44;;;;;;;9.55;2.25;;;13.50;69.30;;;;;;5030937;28;20052;-52
2022/01/03 09:20:11;;;;;;;13.48;2.70;;;13.50;69.40;;;;;;5029881;28;20107;-54
2022/01/03 09:22:43;;;;;;;7.63;2.30;;;13.50;69.20;;;;;;5042529;28;20067;-56
2022/01/03 09:30:33;;;;;;;5.50;2.33;;;13.70;69.20;;;;;;5024936;28;20045;-57
2022/01/03 09:33:01;;;;;;;9.18;2.17;;;13.70;69.00;;;;;;5032025;28;20103;-54
2022/01/03 09:35:28;;;;;;;10.02;2.60;;;13.70;68.80;;;;;;5029201;28;20037;-53
2022/01/03 09:37:54;;;;;;;8.15;2.80;;;13.80;68.70;;;;;;5025400;28;20091;-50
2022/01/03 09:40:21;;;;;;;7.80;1.85;;;13.80;68.60;;;;;;5022949;28;20428;-54
2022/01/03 09:42:54;;;;;;;10.63;3.13;;;13.80;68.50;;;;;;5010675;28;20099;-52
2022/01/03 09:45:21;;;;;;;3.97;1.90;;;13.90;68.60;;;;;;5018171;28;20382;-54
2022/01/03 09:47:52;;;;;;;7.25;2.10;;;13.90;68.70;;;;;;5010923;28;20056;-52
2022/01/03 09:50:21;;;;;;;9.65;2.25;;;13.90;68.40;;;;;;5035409;28;20049;-55
2022/01/03 09:52:49;;;;;;;9.88;2.78;;;14.00;68.10;;;;;;5042277;28;20488;-49
2022/01/03 09:55:19;;;;;;;7.65;2.13;;;14.00;68.10;;;;;;5044254;28;20045;-53
2022/01/03 09:57:47;;;;;;;6.75;2.15;;;14.10;68.00;;;;;;5035939;28;20471;-53
2022/01/03 10:00:22;;;;;;;6.38;2.25;;;14.10;68.10;;;;;;5034364;28;20072;-56
2022/01/03 10:02:50;;;;;;;6.97;2.65;;;14.10;67.70;;;;;;5028246;28;20512;-52
2022/01/03 10:05:19;;;;;;;6.88;2.40;;;14.10;67.80;;;;;;5004476;28;20069;-52
2022/01/03 10:07:47;;;;;;;7.32;2.58;;;14.10;67.70;;;;;;5022838;28;20397;-51
2022/01/03 10:10:14;;;;;;;5.22;1.80;;;14.10;67.60;;;;;;5036982;28;20049;-53
2022/01/03 10:12:41;;;;;;;7.28;1.92;;;14.20;67.60;;;;;;5010471;28;20455;-54
2022/01/03 10:15:09;;;;;;;7.22;2.10;;;14.20;67.90;;;;;;5031507;28;20052;-53
2022/01/03 10:17:38;;;;;;;10.55;2.38;;;14.20;67.90;;;;;;5034878;28;20049;-54
2022/01/03 10:20:10;;;;;;;7.00;2.30;;;14.20;67.80;;;;;;5023484;28;20099;-51
2022/01/03 10:22:39;;;;;;;9.20;3.45;;;14.30;67.60;;;;;;5025339;28;20202;-55
2022/01/03 10:25:21;;;;;;;9.60;2.92;;;14.30;67.60;;;;;;5022575;28;20517;-53
2022/01/03 10:27:51;;;;;;;10.38;2.20;;;14.40;67.00;;;;;;5035769;28;20111;-49
2022/01/03 10:30:38;;;;;;;12.93;2.92;;;14.40;67.30;;;;;;5029039;28;20045;-53
2022/01/03 10:33:09;;;;;;;6.55;1.60;;;14.40;66.80;;;;;;5025366;28;20049;-53
2022/01/03 10:35:42;;;;;;;11.95;2.65;;;14.40;67.00;;;;;;5025651;28;20460;-53
2022/01/03 10:38:10;;;;;;;7.20;2.17;;;14.40;67.60;;;;;;5037888;28;20057;-52
2022/01/03 10:40:38;;;;;;;8.95;2.00;;;14.40;67.20;;;;;;5045976;28;20520;-54
2022/01/03 10:43:15;;;;;;;13.40;3.30;;;14.40;67.20;;;;;;5033261;28;20068;-53
2022/01/03 10:45:43;;;;;;;11.10;3.17;;;14.40;66.90;;;;;;5030319;28;20570;-51
2022/01/03 10:48:27;;;;;;;7.53;2.33;;;14.40;66.80;;;;;;5039678;28;20050;-54
2022/01/03 10:50:55;;;;;;;14.35;2.80;;;14.50;66.70;;;;;;5029034;28;20083;-52
2022/01/03 10:53:39;;;;;;;7.07;3.35;;;14.40;67.00;;;;;;5024749;28;20100;-51
2022/01/03 10:56:38;;;;;;;11.43;2.67;;;14.40;66.70;;;;;;5025091;28;20439;-54
2022/01/03 10:59:18;;;;;;;8.90;2.42;;;14.50;66.90;;;;;;5009174;28;20045;-50
2022/01/03 11:01:47;;;;;;;10.75;2.45;;;14.50;67.00;;;;;;5015151;28;20137;-54
2022/01/03 11:04:57;;;;;;;9.93;1.95;;;14.50;67.20;;;;;;5027396;28;20048;-50
2022/01/03 11:13:10;;;;;;;7.82;1.83;;;14.60;66.60;;;;;;5040086;28;20049;-55
2022/01/03 11:15:39;;;;;;;6.40;1.83;;;14.60;66.90;;;;;;5029417;28;20680;-51
2022/01/03 11:18:11;;;;;;;14.70;2.45;;;14.50;67.20;;;;;;5035967;28;20045;-51
2022/01/03 11:20:39;;;;;;;4.60;2.17;;;14.60;67.00;;;;;;5025448;28;20088;-55
2022/01/03 11:23:05;;;;;;;7.22;1.58;;;14.60;66.90;;;;;;5031917;28;20513;-53
2022/01/03 11:25:33;;;;;;;6.65;1.92;;;14.60;66.80;;;;;;5041859;28;20049;-51
2022/01/03 11:28:01;;;;;;;10.63;2.17;;;14.60;67.00;;;;;;5024885;28;20084;-54
2022/01/03 11:30:28;;;;;;;5.68;1.50;;;14.60;67.00;;;;;;5025314;28;20103;-54
2022/01/03 11:32:56;;;;;;;4.90;1.73;;;14.60;66.90;;;;;;5030707;28;20049;-54
2022/01/03 11:35:23;;;;;;;7.15;2.10;;;14.60;66.70;;;;;;5030485;28;21419;-55
2022/01/03 11:37:51;;;;;;;6.78;1.65;;;14.60;66.80;;;;;;5030274;28;20069;-50
2022/01/03 11:40:18;;;;;;;6.90;1.90;;;14.60;66.80;;;;;;5033853;28;20468;-50
2022/01/03 11:42:45;;;;;;;5.97;2.30;;;14.70;66.80;;;;;;5035993;28;20156;-52
2022/01/03 11:45:12;;;;;;;5.97;1.90;;;14.60;66.60;;;;;;5033406;28;20054;-53
2022/01/03 11:47:39;;;;;;;11.70;2.20;;;14.60;66.80;;;;;;5030402;28;20077;-54
2022/01/03 11:50:07;;;;;;;6.72;2.00;;;14.60;66.70;;;;;;5033919;28;20045;-54
2022/01/03 11:52:42;;;;;;;8.68;2.00;;;14.60;66.60;;;;;;5038983;28;20042;-53
2022/01/03 11:55:11;;;;;;;8.85;2.55;;;14.60;66.20;;;;;;5010995;28;20056;-55
2022/01/03 11:58:11;;;;;;;6.47;2.20;;;14.50;66.60;;;;;;5022357;28;20464;-53
2022/01/03 12:03:54;;;;;;;8.38;1.92;;;14.50;66.50;;;;;;5037773;28;20045;-53
2022/01/03 12:06:33;;;;;;;8.80;2.08;;;14.50;66.80;;;;;;5027005;28;20084;-53
2022/01/03 12:09:05;;;;;;;6.82;2.55;;;14.50;66.80;;;;;;5037217;28;20098;-54
2022/01/03 12:11:32;;;;;;;11.48;2.33;;;14.40;66.90;;;;;;5043171;28;20051;-55
2022/01/03 12:14:05;;;;;;;8.77;2.85;;;14.40;66.70;;;;;;5031677;28;20449;-55
2022/01/03 12:16:40;;;;;;;7.22;2.83;;;14.40;66.40;;;;;;5030337;28;20049;-50
2022/01/03 12:19:10;;;;;;;8.77;2.35;;;14.30;66.50;;;;;;5033400;28;20150;-52
2022/01/03 12:21:49;;;;;;;6.95;1.75;;;14.30;67.50;;;;;;5038521;28;20620;-55
2022/01/03 12:24:38;;;;;;;8.35;2.90;;;14.30;68.50;;;;;;5039091;28;20409;-56
2022/01/03 12:27:14;;;;;;;5.45;2.10;;;14.30;68.80;;;;;;5027628;28;20563;-55
2022/01/03 12:29:56;;;;;;;8.93;2.03;;;14.20;68.70;;;;;;5039513;28;20033;-53
2022/01/03 12:32:33;;;;;;;6.05;1.67;;;14.10;69.20;;;;;;5037825;28;20056;-57
2022/01/03 12:35:19;;;;;;;4.97;1.90;;;13.90;69.40;;;;;;5031087;28;20495;-56
2022/01/03 12:38:06;;;;;;;6.35;1.85;;;13.80;69.50;;;;;;5016617;28;20092;-54
2022/01/03 12:40:43;;;;;;;3.53;1.35;;;13.70;70.50;;;;;;5030859;28;20106;-57
2022/01/03 12:43:16;;;;;;;4.53;1.55;;;13.60;70.00;;;;;;5029486;28;20393;-52
2022/01/03 12:45:43;;;;;;;3.22;1.38;;;13.50;70.10;;;;;;5029117;28;20038;-53
2022/01/03 12:50:53;;;;;;;6.35;1.10;;;13.40;70.70;;;;;;5030986;28;20091;-54
2022/01/03 12:53:29;;;;;;;5.25;1.80;;;13.30;71.10;;;;;;5030400;28;20053;-53
2022/01/03 12:56:14;;;;;;;5.68;1.90;;;13.30;71.60;;;;;;5030233;28;20050;-53
2022/01/03 12:58:44;;;;;;;3.22;1.50;;;13.30;71.90;;;;;;5032815;28;20513;-53
2022/01/03 13:01:11;;;;;;;4.65;1.52;;;13.30;71.50;;;;;;5051487;28;20045;-55
2022/01/03 13:03:50;;;;;;;7.15;1.50;;;13.20;71.50;;;;;;5030681;28;20527;-54
2022/01/03 13:06:19;;;;;;;6.82;2.08;;;13.20;72.00;;;;;;5027378;28;20038;-55
2022/01/03 13:08:55;;;;;;;8.52;2.70;;;13.20;71.90;;;;;;5039464;28;20044;-53
2022/01/03 13:11:25;;;;;;;7.93;2.60;;;13.20;72.00;;;;;;5036375;28;20099;-54
2022/01/03 13:13:59;;;;;;;6.88;2.20;;;13.20;72.10;;;;;;5026450;28;20099;-51
2022/01/03 13:16:34;;;;;;;9.55;2.75;;;13.20;72.90;;;;;;5024546;28;20095;-53
2022/01/03 13:19:08;;;;;;;10.00;2.47;;;13.20;72.30;;;;;;5038094;28;20049;-54
2022/01/03 13:21:57;;;;;;;6.28;2.70;;;13.20;72.20;;;;;;5030942;28;20057;-53
2022/01/03 13:24:43;;;;;;;5.95;2.60;;;13.20;72.30;;;;;;5023749;28;20053;-54